createdAt,value
2019-04-06T00:05:36.905Z,5.70
2019-04-06T00:11:36.917Z,5.49
2019-04-06T00:17:36.894Z,5.37
2019-04-06T00:23:36.894Z,5.22
2019-04-06T00:29:36.952Z,5.10
2019-04-06T00:35:36.916Z,4.96
2019-04-06T00:41:36.937Z,4.90
2019-04-06T00:47:37.921Z,4.87
2019-04-06T00:53:36.888Z,4.71
2019-04-06T00:59:36.929Z,4.58
2019-04-06T01:05:36.899Z,4.45
2019-04-06T01:11:36.935Z,4.22
2019-04-06T01:17:36.957Z,4.16
2019-04-06T01:23:36.966Z,4.02
2019-04-06T01:29:36.901Z,3.87
2019-04-06T01:35:36.924Z,3.65
2019-04-06T01:41:36.902Z,3.41
2019-04-06T01:47:36.997Z,3.22
2019-04-06T01:53:36.925Z,3.14
2019-04-06T01:59:36.954Z,3.03
2019-04-06T02:05:36.951Z,3.15
2019-04-06T02:11:36.953Z,2.99
2019-04-06T02:17:36.949Z,3.05
2019-04-06T02:23:36.953Z,2.95
2019-04-06T02:29:36.965Z,2.75
2019-04-06T02:35:37.080Z,2.50
2019-04-06T02:41:36.965Z,2.34
2019-04-06T02:53:36.972Z,2.02
2019-04-06T02:59:36.934Z,1.90
2019-04-06T03:05:37.006Z,1.72
2019-04-06T03:11:36.939Z,1.66
2019-04-06T03:17:37.046Z,1.71
2019-04-06T03:23:49.743Z,1.73
2019-04-06T03:29:36.930Z,1.58
2019-04-06T03:35:37.104Z,1.53
2019-04-06T03:41:37.005Z,1.53
2019-04-06T03:47:36.978Z,1.43
2019-04-06T03:53:36.962Z,1.17
2019-04-06T03:59:36.972Z,1.20
2019-04-06T04:05:37.121Z,1.06
2019-04-06T04:11:36.965Z,1.00
2019-04-06T04:17:37.257Z,0.80
2019-04-06T04:23:36.996Z,0.96
2019-04-06T04:29:36.967Z,0.98
2019-04-06T04:35:37.049Z,0.90
2019-04-06T04:41:39.346Z,0.69
2019-04-06T04:47:37.072Z,0.45
2019-04-06T04:53:36.985Z,0.42
2019-04-06T04:59:36.966Z,0.41
2019-04-06T05:05:37.129Z,0.42
2019-04-06T05:11:36.978Z,0.42
2019-04-06T05:17:37.000Z,0.51
2019-04-06T05:23:36.968Z,0.63
2019-04-06T05:29:37.005Z,0.69
2019-04-06T05:35:36.996Z,0.77
2019-04-06T05:41:37.050Z,0.87
2019-04-06T05:47:36.981Z,1.16
2019-04-06T05:53:36.992Z,1.38
2019-04-06T05:59:39.906Z,1.61
2019-04-06T06:05:40.331Z,1.77
2019-04-06T06:11:37.097Z,1.94
2019-04-06T06:17:37.076Z,2.03
2019-04-06T06:23:36.997Z,2.10
2019-04-06T06:29:37.039Z,2.34
2019-04-06T06:35:37.004Z,2.71
2019-04-06T06:41:36.981Z,3.14
2019-04-06T06:47:36.991Z,3.55
2019-04-06T06:53:37.053Z,4.11
2019-04-06T06:59:37.008Z,5.41
2019-04-06T07:05:39.398Z,6.47
2019-04-06T07:11:39.457Z,6.60
2019-04-06T07:17:37.008Z,7.35
2019-04-06T07:23:37.020Z,7.44
2019-04-06T07:29:36.990Z,7.14
2019-04-06T07:35:37.135Z,7.47
2019-04-06T07:41:37.191Z,8.38
2019-04-06T07:47:37.045Z,8.23
2019-04-06T07:53:37.056Z,8.21
2019-04-06T07:59:37.020Z,8.78
2019-04-06T08:05:37.082Z,9.00
2019-04-06T08:11:37.036Z,9.33
2019-04-06T08:17:37.048Z,10.31
2019-04-06T08:23:37.174Z,10.67
2019-04-06T08:29:37.031Z,10.99
2019-04-06T08:35:37.021Z,11.39
2019-04-06T08:41:39.791Z,11.42
2019-04-06T08:47:37.639Z,11.51
2019-04-06T08:53:37.040Z,11.65
2019-04-06T08:59:37.081Z,12.58
2019-04-06T09:05:37.209Z,12.67
2019-04-06T09:11:37.088Z,12.82
2019-04-06T09:17:37.096Z,12.96
2019-04-06T09:23:37.124Z,13.48
2019-04-06T09:29:37.266Z,13.50
2019-04-06T09:35:37.156Z,13.49
2019-04-06T09:41:37.167Z,13.81
2019-04-06T09:47:37.117Z,13.84
2019-04-06T09:53:37.293Z,13.67
2019-04-06T09:59:39.243Z,14.28
2019-04-06T10:05:37.294Z,14.29
2019-04-06T10:11:38.849Z,14.28
2019-04-06T10:17:37.134Z,14.20
2019-04-06T10:23:37.114Z,14.77
2019-04-06T10:29:47.332Z,15.54
2019-04-06T10:35:37.260Z,15.07
2019-04-06T10:41:37.337Z,14.82
2019-04-06T10:47:37.164Z,15.20
2019-04-06T10:53:39.652Z,15.07
2019-04-06T10:59:37.537Z,14.94
2019-04-06T11:05:37.426Z,15.44
2019-04-06T11:11:39.683Z,15.36
2019-04-06T11:17:37.134Z,15.23
2019-04-06T11:23:37.206Z,15.05
2019-04-06T11:29:37.277Z,15.54
2019-04-06T11:35:37.168Z,14.99
2019-04-06T11:41:38.235Z,14.55
2019-04-06T11:47:37.162Z,14.65
2019-04-06T11:53:37.381Z,14.63
2019-04-06T11:59:37.218Z,14.77
2019-04-06T12:05:37.166Z,15.05
2019-04-06T12:11:37.213Z,14.75
2019-04-06T12:17:37.252Z,14.87
2019-04-06T12:23:37.358Z,15.67
2019-04-06T12:29:37.232Z,15.39
2019-04-06T12:35:37.221Z,15.57
2019-04-06T12:41:37.206Z,15.23
2019-04-06T12:47:37.329Z,15.09
2019-04-06T12:53:37.414Z,15.01
2019-04-06T12:59:38.000Z,14.82
2019-04-06T13:05:37.217Z,14.54
2019-04-06T13:11:37.641Z,14.36
2019-04-06T13:17:37.310Z,14.29
2019-04-06T13:23:37.246Z,14.30
2019-04-06T13:29:37.264Z,14.60
2019-04-06T13:35:37.516Z,14.66
2019-04-06T13:41:37.298Z,14.58
2019-04-06T13:47:37.285Z,14.69
2019-04-06T13:53:37.380Z,14.80
2019-04-06T13:59:37.548Z,14.85
2019-04-06T14:05:37.345Z,14.65
2019-04-06T14:11:37.532Z,14.83
2019-04-06T14:17:37.282Z,14.50
2019-04-06T14:23:37.283Z,14.33
2019-04-06T14:29:37.318Z,14.33
2019-04-06T14:35:37.314Z,14.29
2019-04-06T14:41:37.435Z,14.42
2019-04-06T14:47:37.400Z,14.57
2019-04-06T14:53:37.349Z,14.85
2019-04-06T14:59:38.426Z,14.88
2019-04-06T15:05:37.633Z,14.86
2019-04-06T15:11:37.295Z,15.02
2019-04-06T15:17:37.319Z,15.11
2019-04-06T15:23:37.404Z,15.17
2019-04-06T15:29:37.397Z,15.17
2019-04-06T15:35:37.343Z,15.06
2019-04-06T15:41:37.633Z,14.98
2019-04-06T15:47:37.318Z,14.95
2019-04-06T15:53:37.438Z,14.92
2019-04-06T15:59:37.458Z,14.93
2019-04-06T16:05:37.713Z,14.91
2019-04-06T16:11:37.345Z,14.87
2019-04-06T16:17:37.434Z,14.90
2019-04-06T16:23:37.540Z,14.89
2019-04-06T16:29:37.361Z,14.92
2019-04-06T16:35:37.743Z,14.92
2019-04-06T16:41:37.373Z,14.92
2019-04-06T16:47:37.482Z,14.88
2019-04-06T16:53:37.472Z,14.84
2019-04-06T16:59:37.521Z,14.84
2019-04-06T17:05:37.392Z,14.75
2019-04-06T17:11:37.451Z,14.73
2019-04-06T17:17:37.489Z,14.59
2019-04-06T17:23:37.478Z,14.37
2019-04-06T17:29:37.578Z,14.20
2019-04-06T17:35:37.429Z,14.06
2019-04-06T17:41:37.448Z,13.86
2019-04-06T17:47:37.472Z,13.68
2019-04-06T17:53:37.487Z,13.42
2019-04-06T17:59:37.428Z,13.19
2019-04-06T18:05:37.509Z,12.94
2019-04-06T18:11:37.623Z,12.78
2019-04-06T18:17:37.487Z,12.67
2019-04-06T18:23:37.488Z,12.48
2019-04-06T18:29:37.447Z,12.20
2019-04-06T18:35:37.522Z,12.00
2019-04-06T18:41:38.324Z,11.83
2019-04-06T18:47:38.020Z,11.72
2019-04-06T18:53:37.661Z,11.61
2019-04-06T18:59:38.595Z,11.40
2019-04-06T19:05:37.477Z,11.19
2019-04-06T19:11:38.093Z,10.92
2019-04-06T19:17:37.742Z,10.72
2019-04-06T19:23:37.846Z,10.48
2019-04-06T19:29:37.463Z,10.24
2019-04-06T19:35:37.609Z,10.17
2019-04-06T19:41:38.100Z,9.93
2019-04-06T19:47:38.193Z,9.76
2019-04-06T19:53:37.935Z,9.90
2019-04-06T19:59:37.699Z,9.70
2019-04-06T20:05:37.610Z,9.45
2019-04-06T20:11:37.549Z,9.37
2019-04-06T20:17:37.615Z,9.41
2019-04-06T20:23:38.005Z,9.40
2019-04-06T20:29:37.957Z,9.24
2019-04-06T20:35:38.377Z,9.04
2019-04-06T20:41:37.539Z,8.67
2019-04-06T20:47:37.654Z,8.48
2019-04-06T20:58:26.031Z,8.30
2019-04-06T21:04:26.477Z,8.24
2019-04-06T21:10:26.012Z,8.09
2019-04-06T21:16:26.556Z,8.04
2019-04-06T21:22:26.213Z,7.90
2019-04-06T21:28:26.168Z,7.75
2019-04-06T21:34:26.110Z,7.58
2019-04-06T21:40:26.426Z,7.54
2019-04-06T21:46:26.246Z,7.37
2019-04-06T21:52:26.240Z,7.21
2019-04-06T21:58:27.052Z,7.05
2019-04-06T22:04:27.299Z,6.93
2019-04-06T22:10:26.481Z,6.93
2019-04-06T22:16:27.215Z,6.91
2019-04-06T22:22:26.032Z,6.99
2019-04-06T22:28:26.704Z,7.11
2019-04-06T22:34:36.552Z,7.14
2019-04-06T22:40:26.007Z,7.17
2019-04-06T22:46:26.234Z,7.23
2019-04-06T22:52:26.246Z,7.25
2019-04-06T22:58:26.057Z,7.28
2019-04-06T23:04:26.073Z,7.41
2019-04-06T23:10:26.049Z,7.29
2019-04-06T23:16:26.478Z,7.17
2019-04-06T23:22:26.295Z,6.96
2019-04-06T23:28:26.088Z,6.91
2019-04-06T23:34:26.079Z,6.74
2019-04-06T23:40:26.041Z,6.58
2019-04-06T23:46:26.057Z,6.44
2019-04-06T23:52:26.307Z,6.37
2019-04-06T23:58:26.102Z,6.26
